sensor_id;sensor_type;location;lat;lon;timestamp;pressure;altitude;pressure_sealevel;temperature;humidity
18436;BME280;9346;52.006;4.720;2022-08-19T00:00:51;101303.63;;;19.74;100.00
18436;BME280;9346;52.006;4.720;2022-08-19T00:03:19;101313.13;;;19.73;100.00
18436;BME280;9346;52.006;4.720;2022-08-19T00:05:46;101303.44;;;19.70;100.00
18436;BME280;9346;52.006;4.720;2022-08-19T00:08:14;101312.97;;;19.69;100.00
18436;BME280;9346;52.006;4.720;2022-08-19T00:10:41;101312.16;;;19.69;100.00
18436;BME280;9346;52.006;4.720;2022-08-19T00:13:08;101307.19;;;19.66;100.00
18436;BME280;9346;52.006;4.720;2022-08-19T00:15:35;101311.94;;;19.65;100.00
18436;BME280;9346;52.006;4.720;2022-08-19T00:18:02;101315.59;;;19.66;100.00
18436;BME280;9346;52.006;4.720;2022-08-19T00:20:29;101317.53;;;19.65;100.00
18436;BME280;9346;52.006;4.720;2022-08-19T00:22:56;101320.34;;;19.65;100.00
18436;BME280;9346;52.006;4.720;2022-08-19T00:25:25;101323.28;;;19.60;100.00
18436;BME280;9346;52.006;4.720;2022-08-19T00:27:51;101319.50;;;19.56;100.00
18436;BME280;9346;52.006;4.720;2022-08-19T00:30:18;101324.56;;;19.54;100.00
18436;BME280;9346;52.006;4.720;2022-08-19T00:32:45;101315.38;;;19.54;100.00
18436;BME280;9346;52.006;4.720;2022-08-19T00:35:12;101300.91;;;19.52;100.00
18436;BME280;9346;52.006;4.720;2022-08-19T00:37:39;101307.63;;;19.51;100.00
18436;BME280;9346;52.006;4.720;2022-08-19T00:40:11;101311.56;;;19.50;100.00
18436;BME280;9346;52.006;4.720;2022-08-19T00:42:40;101305.19;;;19.49;100.00
18436;BME280;9346;52.006;4.720;2022-08-19T00:45:11;101305.50;;;19.48;100.00
18436;BME280;9346;52.006;4.720;2022-08-19T00:47:38;101296.28;;;19.47;100.00
18436;BME280;9346;52.006;4.720;2022-08-19T00:50:09;101305.31;;;19.44;100.00
18436;BME280;9346;52.006;4.720;2022-08-19T00:52:38;101309.25;;;19.43;100.00
18436;BME280;9346;52.006;4.720;2022-08-19T00:55:12;101310.69;;;19.41;100.00
18436;BME280;9346;52.006;4.720;2022-08-19T00:57:46;101307.44;;;19.39;100.00
18436;BME280;9346;52.006;4.720;2022-08-19T01:00:18;101304.44;;;19.35;100.00
18436;BME280;9346;52.006;4.720;2022-08-19T01:02:45;101308.72;;;19.33;100.00
18436;BME280;9346;52.006;4.720;2022-08-19T01:05:16;101300.66;;;19.31;100.00
18436;BME280;9346;52.006;4.720;2022-08-19T01:07:46;101310.19;;;19.30;100.00
18436;BME280;9346;52.006;4.720;2022-08-19T01:10:16;101322.47;;;19.29;100.00
18436;BME280;9346;52.006;4.720;2022-08-19T01:12:47;101324.47;;;19.29;100.00
18436;BME280;9346;52.006;4.720;2022-08-19T01:15:19;101327.59;;;19.27;100.00
18436;BME280;9346;52.006;4.720;2022-08-19T01:17:47;101325.09;;;19.26;100.00
18436;BME280;9346;52.006;4.720;2022-08-19T01:20:18;101329.00;;;19.25;100.00
18436;BME280;9346;52.006;4.720;2022-08-19T01:22:49;101323.41;;;19.25;100.00
18436;BME280;9346;52.006;4.720;2022-08-19T01:25:20;101321.75;;;19.24;100.00
18436;BME280;9346;52.006;4.720;2022-08-19T01:27:48;101312.88;;;19.22;100.00
18436;BME280;9346;52.006;4.720;2022-08-19T01:30:19;101319.63;;;19.21;100.00
18436;BME280;9346;52.006;4.720;2022-08-19T01:32:47;101316.81;;;19.21;100.00
18436;BME280;9346;52.006;4.720;2022-08-19T01:35:14;101322.41;;;19.21;100.00
18436;BME280;9346;52.006;4.720;2022-08-19T01:37:47;101328.31;;;19.19;100.00
18436;BME280;9346;52.006;4.720;2022-08-19T01:40:15;101325.50;;;19.19;100.00
18436;BME280;9346;52.006;4.720;2022-08-19T01:42:45;101332.56;;;19.17;100.00
18436;BME280;9346;52.006;4.720;2022-08-19T01:45:13;101326.47;;;19.15;100.00
18436;BME280;9346;52.006;4.720;2022-08-19T01:47:39;101337.97;;;19.13;100.00
18436;BME280;9346;52.006;4.720;2022-08-19T01:50:08;101337.16;;;19.13;100.00
18436;BME280;9346;52.006;4.720;2022-08-19T01:52:35;101333.53;;;19.12;100.00
18436;BME280;9346;52.006;4.720;2022-08-19T01:55:07;101336.31;;;19.12;100.00
18436;BME280;9346;52.006;4.720;2022-08-19T01:57:35;101336.63;;;19.11;100.00
18436;BME280;9346;52.006;4.720;2022-08-19T02:00:04;101330.22;;;19.10;100.00
18436;BME280;9346;52.006;4.720;2022-08-19T02:02:31;101332.22;;;19.10;100.00
18436;BME280;9346;52.006;4.720;2022-08-19T02:04:58;101330.53;;;19.09;100.00
18436;BME280;9346;52.006;4.720;2022-08-19T02:07:25;101332.22;;;19.10;100.00
18436;BME280;9346;52.006;4.720;2022-08-19T02:09:53;101336.97;;;19.09;100.00
18436;BME280;9346;52.006;4.720;2022-08-19T02:12:22;101336.78;;;19.06;100.00
18436;BME280;9346;52.006;4.720;2022-08-19T02:14:49;101334.44;;;18.99;100.00
18436;BME280;9346;52.006;4.720;2022-08-19T02:17:16;101342.28;;;18.97;100.00
18436;BME280;9346;52.006;4.720;2022-08-19T02:19:43;101346.53;;;18.95;100.00
18436;BME280;9346;52.006;4.720;2022-08-19T02:22:10;101342.13;;;18.94;100.00
18436;BME280;9346;52.006;4.720;2022-08-19T02:24:38;101336.00;;;18.92;100.00
18436;BME280;9346;52.006;4.720;2022-08-19T02:27:05;101333.53;;;18.90;100.00
18436;BME280;9346;52.006;4.720;2022-08-19T02:29:33;101332.72;;;18.90;100.00
18436;BME280;9346;52.006;4.720;2022-08-19T02:32:00;101335.84;;;18.88;100.00
18436;BME280;9346;52.006;4.720;2022-08-19T02:34:27;101323.84;;;18.88;100.00
18436;BME280;9346;52.006;4.720;2022-08-19T02:36:54;101326.94;;;18.86;100.00
18436;BME280;9346;52.006;4.720;2022-08-19T02:39:21;101326.13;;;18.86;100.00
18436;BME280;9346;52.006;4.720;2022-08-19T02:41:46;101318.56;;;18.86;100.00
18436;BME280;9346;52.006;4.720;2022-08-19T02:44:16;101320.53;;;18.86;100.00
18436;BME280;9346;52.006;4.720;2022-08-19T02:46:48;101304.63;;;18.86;100.00
18436;BME280;9346;52.006;4.720;2022-08-19T02:49:16;101318.56;;;18.86;100.00
18436;BME280;9346;52.006;4.720;2022-08-19T02:51:44;101317.44;;;18.87;100.00
18436;BME280;9346;52.006;4.720;2022-08-19T02:54:13;101314.84;;;18.91;100.00
18436;BME280;9346;52.006;4.720;2022-08-19T02:56:43;101319.78;;;18.94;100.00
18436;BME280;9346;52.006;4.720;2022-08-19T02:59:10;101317.00;;;18.94;100.00
18436;BME280;9346;52.006;4.720;2022-08-19T03:01:39;101319.91;;;18.89;100.00
18436;BME280;9346;52.006;4.720;2022-08-19T03:04:10;101306.84;;;18.76;100.00
18436;BME280;9346;52.006;4.720;2022-08-19T03:06:40;101307.41;;;18.64;100.00
18436;BME280;9346;52.006;4.720;2022-08-19T03:09:08;101319.03;;;18.58;100.00
18436;BME280;9346;52.006;4.720;2022-08-19T03:11:35;101319.66;;;18.55;100.00
18436;BME280;9346;52.006;4.720;2022-08-19T03:14:04;101313.66;;;18.48;100.00
18436;BME280;9346;52.006;4.720;2022-08-19T03:16:34;101316.91;;;18.41;100.00
18436;BME280;9346;52.006;4.720;2022-08-19T03:19:01;101317.22;;;18.40;100.00
18436;BME280;9346;52.006;4.720;2022-08-19T03:21:32;101308.53;;;18.41;100.00
18436;BME280;9346;52.006;4.720;2022-08-19T03:24:02;101311.84;;;18.43;100.00
18436;BME280;9346;52.006;4.720;2022-08-19T03:26:30;101308.75;;;18.45;100.00
18436;BME280;9346;52.006;4.720;2022-08-19T03:28:57;101307.59;;;18.46;100.00
18436;BME280;9346;52.006;4.720;2022-08-19T03:31:26;101296.94;;;18.48;100.00
18436;BME280;9346;52.006;4.720;2022-08-19T03:33:53;101299.72;;;18.48;100.00
18436;BME280;9346;52.006;4.720;2022-08-19T03:36:22;101294.97;;;18.48;100.00
18436;BME280;9346;52.006;4.720;2022-08-19T03:38:53;101292.19;;;18.48;100.00
18436;BME280;9346;52.006;4.720;2022-08-19T03:41:22;101284.97;;;18.47;100.00
18436;BME280;9346;52.006;4.720;2022-08-19T03:43:50;101301.19;;;18.45;100.00
18436;BME280;9346;52.006;4.720;2022-08-19T03:46:20;101300.38;;;18.45;100.00
18436;BME280;9346;52.006;4.720;2022-08-19T03:48:49;101308.22;;;18.43;100.00
18436;BME280;9346;52.006;4.720;2022-08-19T03:51:22;101307.69;;;18.41;100.00
18436;BME280;9346;52.006;4.720;2022-08-19T03:53:52;101306.91;;;18.40;100.00
18436;BME280;9346;52.006;4.720;2022-08-19T03:56:19;101296.84;;;18.39;100.00
18436;BME280;9346;52.006;4.720;2022-08-19T03:58:46;101303.59;;;18.38;100.00
18436;BME280;9346;52.006;4.720;2022-08-19T04:01:16;101305.22;;;18.39;100.00
18436;BME280;9346;52.006;4.720;2022-08-19T04:03:45;101310.81;;;18.39;100.00
18436;BME280;9346;52.006;4.720;2022-08-19T04:06:14;101316.06;;;18.41;100.00
18436;BME280;9346;52.006;4.720;2022-08-19T04:08:42;101314.94;;;18.42;100.00
18436;BME280;9346;52.006;4.720;2022-08-19T04:11:13;101324.81;;;18.48;100.00
18436;BME280;9346;52.006;4.720;2022-08-19T04:13:41;101316.44;;;18.48;100.00
18436;BME280;9346;52.006;4.720;2022-08-19T04:16:10;101328.66;;;18.52;100.00
18436;BME280;9346;52.006;4.720;2022-08-19T04:18:38;101322.44;;;18.55;100.00
18436;BME280;9346;52.006;4.720;2022-08-19T04:21:06;101324.91;;;18.56;100.00
18436;BME280;9346;52.006;4.720;2022-08-19T04:23:34;101334.72;;;18.54;100.00
18436;BME280;9346;52.006;4.720;2022-08-19T04:26:02;101328.34;;;18.53;100.00
18436;BME280;9346;52.006;4.720;2022-08-19T04:28:30;101340.81;;;18.56;100.00
18436;BME280;9346;52.006;4.720;2022-08-19T04:30:57;101335.25;;;18.56;100.00
18436;BME280;9346;52.006;4.720;2022-08-19T04:33:26;101341.34;;;18.58;100.00
18436;BME280;9346;52.006;4.720;2022-08-19T04:35:53;101335.56;;;18.54;100.00
18436;BME280;9346;52.006;4.720;2022-08-19T04:38:23;101335.56;;;18.54;100.00
18436;BME280;9346;52.006;4.720;2022-08-19T04:40:51;101341.97;;;18.55;100.00
18436;BME280;9346;52.006;4.720;2022-08-19T04:43:38;101343.94;;;18.54;100.00
18436;BME280;9346;52.006;4.720;2022-08-19T04:46:05;101345.56;;;18.55;100.00
18436;BME280;9346;52.006;4.720;2022-08-19T04:48:33;101338.34;;;18.54;100.00
18436;BME280;9346;52.006;4.720;2022-08-19T04:51:00;101341.97;;;18.55;100.00
18436;BME280;9346;52.006;4.720;2022-08-19T04:53:32;101349.19;;;18.56;100.00
18436;BME280;9346;52.006;4.720;2022-08-19T04:56:04;101351.66;;;18.57;100.00
18436;BME280;9346;52.006;4.720;2022-08-19T04:58:32;101355.28;;;18.58;100.00
18436;BME280;9346;52.006;4.720;2022-08-19T05:01:01;101354.66;;;18.61;100.00
18436;BME280;9346;52.006;4.720;2022-08-19T05:03:28;101361.88;;;18.62;100.00
18436;BME280;9346;52.006;4.720;2022-08-19T05:06:04;101362.69;;;18.62;100.00
18436;BME280;9346;52.006;4.720;2022-08-19T05:08:34;101370.75;;;18.64;100.00
18436;BME280;9346;52.006;4.720;2022-08-19T05:11:08;101374.06;;;18.66;100.00
18436;BME280;9346;52.006;4.720;2022-08-19T05:13:36;101370.63;;;18.69;100.00
18436;BME280;9346;52.006;4.720;2022-08-19T05:16:05;101368.88;;;18.73;100.00
18436;BME280;9346;52.006;4.720;2022-08-19T05:18:32;101370.22;;;18.75;100.00
18436;BME280;9346;52.006;4.720;2022-08-19T05:21:18;101373.38;;;18.82;100.00
18436;BME280;9346;52.006;4.720;2022-08-19T05:24:04;101369.44;;;18.83;100.00
18436;BME280;9346;52.006;4.720;2022-08-19T05:26:33;101370.47;;;18.87;100.00
18436;BME280;9346;52.006;4.720;2022-08-19T05:29:00;101366.22;;;18.90;100.00
18436;BME280;9346;52.006;4.720;2022-08-19T05:31:29;101366.41;;;18.93;100.00
18436;BME280;9346;52.006;4.720;2022-08-19T05:33:56;101380.25;;;18.98;100.00
18436;BME280;9346;52.006;4.720;2022-08-19T05:36:24;101373.19;;;19.01;100.00
18436;BME280;9346;52.006;4.720;2022-08-19T05:38:51;101375.03;;;19.05;100.00
18436;BME280;9346;52.006;4.720;2022-08-19T05:41:20;101380.47;;;19.10;100.00
18436;BME280;9346;52.006;4.720;2022-08-19T05:43:48;101371.97;;;19.15;100.00
18436;BME280;9346;52.006;4.720;2022-08-19T05:46:17;101373.00;;;19.19;100.00
18436;BME280;9346;52.006;4.720;2022-08-19T05:48:48;101384.75;;;19.30;100.00
18436;BME280;9346;52.006;4.720;2022-08-19T05:51:16;101378.03;;;19.31;100.00
18436;BME280;9346;52.006;4.720;2022-08-19T05:53:43;101384.66;;;19.35;100.00
18436;BME280;9346;52.006;4.720;2022-08-19T05:56:13;101379.41;;;19.42;100.00
18436;BME280;9346;52.006;4.720;2022-08-19T05:58:42;101384.53;;;19.48;100.00
18436;BME280;9346;52.006;4.720;2022-08-19T06:01:11;101389.00;;;19.49;100.00
18436;BME280;9346;52.006;4.720;2022-08-19T06:03:39;101381.09;;;19.51;100.00
18436;BME280;9346;52.006;4.720;2022-08-19T06:06:09;101380.97;;;19.56;100.00
18436;BME280;9346;52.006;4.720;2022-08-19T06:08:37;101374.91;;;19.63;100.00
18436;BME280;9346;52.006;4.720;2022-08-19T06:11:20;101372.31;;;19.66;100.00
18436;BME280;9346;52.006;4.720;2022-08-19T06:13:49;101369.03;;;19.73;100.00
18436;BME280;9346;52.006;4.720;2022-08-19T06:16:18;101372.16;;;19.71;100.00
18436;BME280;9346;52.006;4.720;2022-08-19T06:18:48;101370.72;;;19.74;100.00
18436;BME280;9346;52.006;4.720;2022-08-19T06:21:18;101372.19;;;19.80;100.00
18436;BME280;9346;52.006;4.720;2022-08-19T06:23:45;101372.06;;;19.85;100.00
18436;BME280;9346;52.006;4.720;2022-08-19T06:26:14;101382.59;;;19.88;100.00
18436;BME280;9346;52.006;4.720;2022-08-19T06:28:41;101382.78;;;19.92;100.00
18436;BME280;9346;52.006;4.720;2022-08-19T06:31:10;101377.22;;;20.00;100.00
18436;BME280;9346;52.006;4.720;2022-08-19T06:33:39;101370.31;;;20.06;100.00
18436;BME280;9346;52.006;4.720;2022-08-19T06:36:06;101380.72;;;20.14;100.00
18436;BME280;9346;52.006;4.720;2022-08-19T06:38:35;101382.88;;;20.17;100.00
18436;BME280;9346;52.006;4.720;2022-08-19T06:41:03;101372.34;;;20.23;100.00
18436;BME280;9346;52.006;4.720;2022-08-19T06:43:30;101373.84;;;20.29;100.00
18436;BME280;9346;52.006;4.720;2022-08-19T06:45:57;101366.13;;;20.34;100.00
18436;BME280;9346;52.006;4.720;2022-08-19T06:48:24;101371.59;;;20.48;100.00
18436;BME280;9346;52.006;4.720;2022-08-19T06:50:51;101366.50;;;20.58;100.00
18436;BME280;9346;52.006;4.720;2022-08-19T06:53:18;101362.88;;;20.66;100.00
18436;BME280;9346;52.006;4.720;2022-08-19T06:55:48;101365.00;;;20.69;100.00
18436;BME280;9346;52.006;4.720;2022-08-19T06:58:25;101362.06;;;20.74;100.00
18436;BME280;9346;52.006;4.720;2022-08-19T07:00:52;101368.31;;;20.80;100.00
18436;BME280;9346;52.006;4.720;2022-08-19T07:03:19;101359.41;;;20.86;100.00
18436;BME280;9346;52.006;4.720;2022-08-19T07:05:46;101358.63;;;20.94;100.00
18436;BME280;9346;52.006;4.720;2022-08-19T07:08:13;101363.88;;;21.04;100.00
18436;BME280;9346;52.006;4.720;2022-08-19T07:10:43;101365.03;;;21.12;100.00
18436;BME280;9346;52.006;4.720;2022-08-19T07:13:11;101361.69;;;21.18;100.00
18436;BME280;9346;52.006;4.720;2022-08-19T07:15:38;101364.16;;;21.20;100.00
18436;BME280;9346;52.006;4.720;2022-08-19T07:18:05;101359.41;;;21.20;100.00
18436;BME280;9346;52.006;4.720;2022-08-19T07:20:32;101355.94;;;21.23;100.00
18436;BME280;9346;52.006;4.720;2022-08-19T07:22:59;101359.72;;;21.27;100.00
18436;BME280;9346;52.006;4.720;2022-08-19T07:25:25;101367.78;;;21.29;100.00
18436;BME280;9346;52.006;4.720;2022-08-19T07:27:53;101357.41;;;21.29;100.00
18436;BME280;9346;52.006;4.720;2022-08-19T07:30:22;101355.06;;;21.31;100.00
18436;BME280;9346;52.006;4.720;2022-08-19T07:32:49;101348.81;;;21.34;100.00
18436;BME280;9346;52.006;4.720;2022-08-19T07:35:17;101342.69;;;21.41;100.00
18436;BME280;9346;52.006;4.720;2022-08-19T07:37:45;101342.66;;;21.49;100.00
18436;BME280;9346;52.006;4.720;2022-08-19T07:40:12;101350.53;;;21.56;100.00
18436;BME280;9346;52.006;4.720;2022-08-19T07:42:42;101346.06;;;21.63;100.00
18436;BME280;9346;52.006;4.720;2022-08-19T07:45:09;101340.63;;;21.67;100.00
18436;BME280;9346;52.006;4.720;2022-08-19T07:47:38;101342.75;;;21.70;100.00
18436;BME280;9346;52.006;4.720;2022-08-19T07:50:09;101342.25;;;21.76;100.00
18436;BME280;9346;52.006;4.720;2022-08-19T07:52:37;101346.19;;;21.84;100.00
18436;BME280;9346;52.006;4.720;2022-08-19T07:55:06;101349.59;;;21.89;100.00
18436;BME280;9346;52.006;4.720;2022-08-19T07:57:33;101350.09;;;21.91;100.00
18436;BME280;9346;52.006;4.720;2022-08-19T08:00:01;101351.06;;;21.95;100.00
18436;BME280;9346;52.006;4.720;2022-08-19T08:02:28;101348.09;;;22.01;100.00
18436;BME280;9346;52.006;4.720;2022-08-19T08:04:56;101353.47;;;22.06;100.00
18436;BME280;9346;52.006;4.720;2022-08-19T08:07:40;101356.94;;;22.11;100.00
18436;BME280;9346;52.006;4.720;2022-08-19T08:10:24;101354.75;;;22.17;100.00
18436;BME280;9346;52.006;4.720;2022-08-19T08:12:53;101354.09;;;22.20;100.00
18436;BME280;9346;52.006;4.720;2022-08-19T08:15:20;101351.75;;;22.22;100.00
18436;BME280;9346;52.006;4.720;2022-08-19T08:17:47;101351.06;;;22.25;100.00
18436;BME280;9346;52.006;4.720;2022-08-19T08:20:16;101348.53;;;22.32;100.00
18436;BME280;9346;52.006;4.720;2022-08-19T08:25:36;101356.09;;;22.40;100.00
18436;BME280;9346;52.006;4.720;2022-08-19T08:28:04;101362.19;;;22.42;100.00
18436;BME280;9346;52.006;4.720;2022-08-19T08:30:32;101357.03;;;22.44;100.00
18436;BME280;9346;52.006;4.720;2022-08-19T08:33:01;101361.38;;;22.41;100.00
18436;BME280;9346;52.006;4.720;2022-08-19T08:35:29;101358.91;;;22.40;100.00
18436;BME280;9346;52.006;4.720;2022-08-19T08:37:56;101366.13;;;22.41;100.00
18436;BME280;9346;52.006;4.720;2022-08-19T08:40:28;101368.47;;;22.39;100.00
18436;BME280;9346;52.006;4.720;2022-08-19T08:42:58;101364.16;;;22.41;100.00
18436;BME280;9346;52.006;4.720;2022-08-19T08:45:30;101374.09;;;22.39;100.00
18436;BME280;9346;52.006;4.720;2022-08-19T08:48:01;101374.09;;;22.39;100.00
18436;BME280;9346;52.006;4.720;2022-08-19T08:50:33;101373.09;;;22.43;100.00
18436;BME280;9346;52.006;4.720;2022-08-19T08:53:03;101379.66;;;22.47;100.00
18436;BME280;9346;52.006;4.720;2022-08-19T08:55:32;101375.50;;;22.53;100.00
18436;BME280;9346;52.006;4.720;2022-08-19T08:58:06;101374.69;;;22.53;100.00
18436;BME280;9346;52.006;4.720;2022-08-19T09:00:37;101367.56;;;22.55;100.00
18436;BME280;9346;52.006;4.720;2022-08-19T09:03:10;101378.44;;;22.57;100.00
18436;BME280;9346;52.006;4.720;2022-08-19T09:05:50;101374.13;;;22.59;100.00
18436;BME280;9346;52.006;4.720;2022-08-19T09:08:28;101382.69;;;22.63;100.00
18436;BME280;9346;52.006;4.720;2022-08-19T09:10:57;101379.22;;;22.66;100.00
18436;BME280;9346;52.006;4.720;2022-08-19T09:13:31;101378.31;;;22.74;100.00
18436;BME280;9346;52.006;4.720;2022-08-19T09:16:04;101369.00;;;22.82;100.00
18436;BME280;9346;52.006;4.720;2022-08-19T09:18:40;101375.44;;;22.82;100.00
18436;BME280;9346;52.006;4.720;2022-08-19T09:21:10;101382.00;;;22.86;100.00
18436;BME280;9346;52.006;4.720;2022-08-19T09:23:37;101375.13;;;22.96;100.00
18436;BME280;9346;52.006;4.720;2022-08-19T09:26:07;101377.13;;;23.16;100.00
18436;BME280;9346;52.006;4.720;2022-08-19T09:28:34;101370.63;;;23.24;100.00
18436;BME280;9346;52.006;4.720;2022-08-19T09:31:02;101366.81;;;23.40;100.00
18436;BME280;9346;52.006;4.720;2022-08-19T09:33:29;101362.16;;;23.56;100.00
18436;BME280;9346;52.006;4.720;2022-08-19T09:36:08;101350.56;;;23.70;100.00
18436;BME280;9346;52.006;4.720;2022-08-19T09:38:37;101359.00;;;23.70;100.00
18436;BME280;9346;52.006;4.720;2022-08-19T09:41:09;101358.53;;;23.68;100.00
18436;BME280;9346;52.006;4.720;2022-08-19T09:43:38;101358.66;;;23.71;100.00
18436;BME280;9346;52.006;4.720;2022-08-19T09:46:06;101347.66;;;23.90;100.00
18436;BME280;9346;52.006;4.720;2022-08-19T09:48:35;101343.59;;;24.00;100.00
18436;BME280;9346;52.006;4.720;2022-08-19T09:51:03;101344.75;;;24.11;100.00
18436;BME280;9346;52.006;4.720;2022-08-19T09:53:30;101346.97;;;24.18;100.00
18436;BME280;9346;52.006;4.720;2022-08-19T09:55:58;101341.22;;;24.14;100.00
18436;BME280;9346;52.006;4.720;2022-08-19T09:58:25;101352.25;;;24.19;100.00
18436;BME280;9346;52.006;4.720;2022-08-19T10:00:54;101353.19;;;24.23;100.00
18436;BME280;9346;52.006;4.720;2022-08-19T10:03:22;101351.31;;;24.27;100.00
18436;BME280;9346;52.006;4.720;2022-08-19T10:05:49;101348.00;;;24.25;100.00
18436;BME280;9346;52.006;4.720;2022-08-19T10:08:18;101347.56;;;24.23;100.00
18436;BME280;9346;52.006;4.720;2022-08-19T10:10:48;101347.44;;;24.20;100.00
18436;BME280;9346;52.006;4.720;2022-08-19T10:13:19;101354.25;;;24.19;100.00
18436;BME280;9346;52.006;4.720;2022-08-19T10:15:48;101353.06;;;24.20;100.00
18436;BME280;9346;52.006;4.720;2022-08-19T10:18:16;101341.47;;;24.21;100.00
18436;BME280;9346;52.006;4.720;2022-08-19T10:20:44;101350.94;;;24.17;100.00
18436;BME280;9346;52.006;4.720;2022-08-19T10:23:12;101351.66;;;24.14;100.00
18436;BME280;9346;52.006;4.720;2022-08-19T10:25:39;101347.22;;;24.13;100.00
18436;BME280;9346;52.006;4.720;2022-08-19T10:28:06;101346.28;;;24.09;100.00
18436;BME280;9346;52.006;4.720;2022-08-19T10:30:35;101352.97;;;24.04;100.00
18436;BME280;9346;52.006;4.720;2022-08-19T10:33:02;101355.78;;;24.04;100.00
18436;BME280;9346;52.006;4.720;2022-08-19T10:35:30;101356.13;;;24.02;100.00
18436;BME280;9346;52.006;4.720;2022-08-19T10:37:57;101362.09;;;24.01;100.00
18436;BME280;9346;52.006;4.720;2022-08-19T10:40:26;101360.94;;;24.02;100.00
18436;BME280;9346;52.006;4.720;2022-08-19T10:42:53;101369.84;;;24.04;100.00
18436;BME280;9346;52.006;4.720;2022-08-19T10:45:21;101371.47;;;24.05;100.00
18436;BME280;9346;52.006;4.720;2022-08-19T10:47:52;101369.94;;;24.08;100.00
18436;BME280;9346;52.006;4.720;2022-08-19T10:50:19;101363.63;;;24.11;100.00
18436;BME280;9346;52.006;4.720;2022-08-19T10:53:04;101355.31;;;24.14;100.00
18436;BME280;9346;52.006;4.720;2022-08-19T10:55:34;101341.22;;;24.14;100.00
18436;BME280;9346;52.006;4.720;2022-08-19T10:58:20;101349.31;;;24.16;100.00
18436;BME280;9346;52.006;4.720;2022-08-19T11:00:52;101343.69;;;24.16;100.00
18436;BME280;9346;52.006;4.720;2022-08-19T11:03:22;101349.31;;;24.16;100.00
18436;BME280;9346;52.006;4.720;2022-08-19T11:05:57;101343.91;;;24.23;100.00
18436;BME280;9346;52.006;4.720;2022-08-19T11:08:24;101343.78;;;24.31;100.00
18436;BME280;9346;52.006;4.720;2022-08-19T11:10:52;101344.47;;;24.40;100.00
18436;BME280;9346;52.006;4.720;2022-08-19T11:13:20;101339.78;;;24.44;100.00
18436;BME280;9346;52.006;4.720;2022-08-19T11:15:56;101345.16;;;24.49;100.00
18436;BME280;9346;52.006;4.720;2022-08-19T11:18:26;101337.63;;;24.53;100.00
18436;BME280;9346;52.006;4.720;2022-08-19T11:20:53;101338.47;;;24.54;100.00
18436;BME280;9346;52.006;4.720;2022-08-19T11:23:20;101334.59;;;24.58;100.00
18436;BME280;9346;52.006;4.720;2022-08-19T11:25:46;101333.41;;;24.59;100.00
18436;BME280;9346;52.006;4.720;2022-08-19T11:28:14;101342.31;;;24.61;100.00
18436;BME280;9346;52.006;4.720;2022-08-19T11:30:41;101335.03;;;24.60;100.00
18436;BME280;9346;52.006;4.720;2022-08-19T11:33:08;101339.03;;;24.59;100.00
18436;BME280;9346;52.006;4.720;2022-08-19T11:35:40;101332.94;;;24.57;100.00
18436;BME280;9346;52.006;4.720;2022-08-19T11:38:07;101332.47;;;24.55;100.00
18436;BME280;9346;52.006;4.720;2022-08-19T11:40:33;101339.53;;;24.49;100.00
18436;BME280;9346;52.006;4.720;2022-08-19T11:43:00;101335.81;;;24.45;100.00
18436;BME280;9346;52.006;4.720;2022-08-19T11:45:28;101345.66;;;24.39;100.00
18436;BME280;9346;52.006;4.720;2022-08-19T11:47:55;101336.25;;;24.35;100.00
18436;BME280;9346;52.006;4.720;2022-08-19T11:50:24;101336.16;;;24.32;100.00
18436;BME280;9346;52.006;4.720;2022-08-19T11:52:54;101338.50;;;24.30;100.00
18436;BME280;9346;52.006;4.720;2022-08-19T11:55:22;101340.53;;;24.29;100.00
18436;BME280;9346;52.006;4.720;2022-08-19T11:57:49;101346.94;;;24.30;100.00
18436;BME280;9346;52.006;4.720;2022-08-19T12:00:16;101347.91;;;24.34;100.00
18436;BME280;9346;52.006;4.720;2022-08-19T12:02:43;101363.00;;;24.41;100.00
18436;BME280;9346;52.006;4.720;2022-08-19T12:05:10;101349.53;;;24.47;100.00
18436;BME280;9346;52.006;4.720;2022-08-19T12:07:37;101349.63;;;24.50;100.00
18436;BME280;9346;52.006;4.720;2022-08-19T12:10:08;101346.44;;;24.52;100.00
18436;BME280;9346;52.006;4.720;2022-08-19T12:12:35;101346.44;;;24.52;100.00
18436;BME280;9346;52.006;4.720;2022-08-19T12:15:06;101337.53;;;24.50;100.00
18436;BME280;9346;52.006;4.720;2022-08-19T12:17:34;101339.06;;;24.47;100.00
18436;BME280;9346;52.006;4.720;2022-08-19T12:20:01;101338.81;;;24.52;100.00
18436;BME280;9346;52.006;4.720;2022-08-19T12:22:28;101335.31;;;24.55;100.00
18436;BME280;9346;52.006;4.720;2022-08-19T12:24:55;101335.88;;;24.61;100.00
18436;BME280;9346;52.006;4.720;2022-08-19T12:27:25;101334.56;;;24.70;100.00
18436;BME280;9346;52.006;4.720;2022-08-19T12:29:51;101333.63;;;24.78;100.00
18436;BME280;9346;52.006;4.720;2022-08-19T12:32:18;101338.53;;;24.81;100.00
18436;BME280;9346;52.006;4.720;2022-08-19T12:34:46;101328.91;;;24.82;100.00
18436;BME280;9346;52.006;4.720;2022-08-19T12:37:14;101335.25;;;24.79;100.00
18436;BME280;9346;52.006;4.720;2022-08-19T12:39:42;101330.44;;;24.80;100.00
18436;BME280;9346;52.006;4.720;2022-08-19T12:42:10;101328.41;;;24.80;100.00
18436;BME280;9346;52.006;4.720;2022-08-19T12:44:42;101328.91;;;24.82;100.00
18436;BME280;9346;52.006;4.720;2022-08-19T12:47:11;101327.34;;;24.85;100.00
18436;BME280;9346;52.006;4.720;2022-08-19T12:49:40;101323.72;;;24.84;100.00
18436;BME280;9346;52.006;4.720;2022-08-19T12:52:09;101323.38;;;24.86;100.00
18436;BME280;9346;52.006;4.720;2022-08-19T12:54:40;101324.44;;;24.81;100.00
18436;BME280;9346;52.006;4.720;2022-08-19T12:57:09;101319.16;;;24.80;100.00
18436;BME280;9346;52.006;4.720;2022-08-19T12:59:37;101330.44;;;24.80;100.00
18436;BME280;9346;52.006;4.720;2022-08-19T13:02:07;101334.41;;;24.79;100.00